東京国際空港の過去48時間の天気

東京国際空港 (Tokyo/Intl)

現在時刻: 10/24 17:42 JST (10/24 08:42 UTC) 以下の時間は現地時間です。

過去48時間のMETAR気象情報
時間 風向 風速(m/s) 視程 気温(℃) 湿度(%) 気圧(hPa) 天気現象
24 17:30 南東 3 10km以上 19 56 1004
24 17:00 4 10km以上 19 52 1004
24 16:30 3 10km以上 19 52 1004
24 16:00 3 10km以上 20 49 1004
24 15:30 東南東 2 10km以上 20 49 1003
24 15:00 北東 3 10km以上 20 56 1003
24 14:30 北東 2 10km以上 19 52 1004
24 14:00 2 10km以上 20 53 1003
24 13:30 東北東 2 10km以上 20 49 1004
24 13:00 東北東 3 10km以上 20 49 1004
24 12:30 4 10km以上 20 43 1004
24 12:00 5 10km以上 19 46 1005
24 11:30 北東 5 10km以上 19 49 1005
24 11:00 北北東 6 10km以上 19 46 1005
24 10:30 6 10km以上 19 49 1006
24 10:00 5 10km以上 19 49 1006
24 09:30 6 10km以上 18 56 1006
24 09:00 7 10km以上 19 49 1006
24 08:30 北北西 8 10km以上 18 52 1006
24 08:00 北北西 8 10km以上 18 49 1006
24 07:30 北北西 8 10km以上 16 55 1006
24 07:00 北北西 8 10km以上 17 52 1005
24 06:30 北北西 8 10km以上 17 55 1005
24 06:00 8 10km以上 17 55 1005
24 05:30 7 10km以上 18 56 1005
24 05:00 7 10km以上 18 56 1004
24 04:30 7 10km以上 18 56 1004
24 04:00 7 10km以上 18 56 1004
24 03:30 7 10km以上 18 56 1003
24 03:00 8 10km以上 18 60 1003
24 02:30 9 10km以上 18 60 1002
24 02:00 7 10km以上 18 64 1002
24 01:30 6 10km以上 18 60 1002
24 01:00 6 10km以上 18 64 1002
24 00:30 6 10km以上 18 60 1002
24 00:00 5 10km以上 19 60 1001
23 23:30 6 10km以上 18 73 1001
23 23:00 4 10km以上 18 83 1001
23 22:30 4 10km以上 19 88 1001
23 22:00 3 10km以上 19 88 1001
23 21:30 4 10km以上 18 88 1001 弱いしゅう雨
23 21:00 北北東 2 10km以上 18 94 1001 弱いしゅう雨
23 20:30 不定 1 10km以上 19 88 1000
23 20:00 南東 2 10km以上 19 94 1001 弱いしゅう雨
23 19:30 不定 1 10km以上 19 88 1000
23 19:00 1 10km以上 19 94 1000
23 18:30 2 10km以上 18 100 1000
23 18:21 不定 1 10km以上 18 100 1000
23 18:00 北北東 2 10km以上 18 100 1000 周辺でしゅう雨
23 17:34 3 10km以上 18 100 999
23 17:00 南南東 1 10km以上 18 94 999
23 16:30 西 2 8000m 18 100 1000 弱いしゅう雨
23 16:00 北西 2 6000m 18 100 999 弱いしゅう雨
23 15:30 3 8000m 18 100 999 弱いしゅう雨
23 15:00 3 10km以上 18 94 999 弱いしゅう雨
23 14:30 北北西 4 10km以上 18 94 999 弱いしゅう雨
23 14:00 北北西 5 8000m 18 94 999 弱いしゅう雨
23 13:30 北北西 5 4000m 17 100 999 弱いしゅう雨 もや
23 13:00 4 10km以上 18 94 999 弱いしゅう雨
23 12:30 5 10km以上 18 94 1000 弱いしゅう雨
23 12:18 4 8000m 18 94 1000 弱いしゅう雨
23 12:00 北北西 5 10km以上 18 94 1001 弱いしゅう雨
23 11:49 北北西 4 10km以上 18 94 1001 弱い雨
23 11:30 北北西 3 10km以上 18 94 1001 弱い雨
23 11:15 北西 4 7000m 18 94 1002
23 11:00 西北西 4 6000m 18 94 1002 弱い雨
23 10:30 北北西 2 4000m 18 100 1002 弱い雨 もや
23 10:00 北北東 2 4000m 18 94 1002 弱い雨 もや
23 09:37 北西 2 5000m 18 94 1002 弱い雨 もや
23 09:30 北北西 2 6000m 18 94 1003 弱い雨
23 09:11 2 5000m 18 94 1003 弱い雨 もや
23 09:00 2 7000m 18 94 1003 弱い雨
23 08:30 2 7000m 17 100 1004 周辺でしゅう雨
23 08:00 不定 1 6000m 17 94 1004 弱い雨
23 07:38 北北東 2 8000m 17 94 1005 弱い雨
23 07:30 2 9000m 17 94 1005 弱い雨
23 07:16 不定 1 10km以上 17 94 1005 弱い雨
23 07:00 北北西 2 10km以上 17 94 1005 弱い雨
23 06:30 2 10km以上 17 94 1006 周辺でしゅう雨
23 06:00 3 10km以上 17 94 1005 弱いしゅう雨
23 05:30 5 10km以上 17 88 1006 弱いしゅう雨
23 05:00 4 10km以上 18 83 1006 周辺でしゅう雨
23 04:30 北北西 5 10km以上 17 88 1007 周辺でしゅう雨
23 04:13 北北西 5 10km以上 18 83 1007 弱いしゅう雨
23 04:00 北北西 4 10km以上 18 83 1008 周辺でしゅう雨
23 03:30 北北西 4 10km以上 18 77 1008 周辺でしゅう雨
23 03:00 5 10km以上 18 77 1008
23 02:30 5 10km以上 18 77 1009
23 02:00 6 10km以上 18 77 1009 周辺でしゅう雨
23 01:30 6 10km以上 18 77 1010
23 01:00 5 10km以上 19 73 1010 周辺でしゅう雨
23 00:30 北北西 4 10km以上 19 73 1011 周辺でしゅう雨
23 00:00 北北西 4 10km以上 19 73 1011 弱いしゅう雨
22 23:30 北北西 5 10km以上 19 73 1012 周辺でしゅう雨
22 23:00 4 10km以上 19 73 1012 弱いしゅう雨
22 22:30 北北西 4 10km以上 19 73 1013 周辺でしゅう雨
22 22:00 北北西 4 10km以上 19 73 1013
22 21:30 4 10km以上 19 73 1014
22 21:00 北北西 3 10km以上 18 73 1014
22 20:30 北北西 4 10km以上 19 73 1014
22 20:00 4 10km以上 19 73 1015
22 19:30 4 10km以上 19 73 1015
22 19:00 北北東 3 10km以上 19 73 1015
22 18:30 4 10km以上 20 68 1015
22 18:00 4 10km以上 20 68 1015
RJTT 240830Z 14006KT 9999 FEW030 19/10 Q1004 NOSIG RMK 1CU030 A2967
RJTT 240800Z 17008KT 9999 FEW030 19/09 Q1004 NOSIG RMK 1CU030 A2966
RJTT 240730Z 17006KT 150V210 9999 FEW030 19/09 Q1004 NOSIG RMK 1CU030 A2965
RJTT 240700Z 17006KT 140V220 9999 FEW030 20/09 Q1004 NOSIG RMK 1CU030 A2965
RJTT 240630Z 12004KT 9999 FEW030 20/09 Q1003 BECMG 18010KT
RJTT 240600Z 04005KT 9999 FEW030 20/11 Q1003 BECMG 18010KT RMK 1CU030 A2964
RJTT 240530Z 04003KT 9999 FEW030 19/09 Q1004 BECMG 18010KT RMK 1CU030 A2965
RJTT 240500Z 10003KT 9999 FEW030 20/10 Q1003 BECMG 18010KT RMK 1CU030 A2964
RJTT 240430Z 06003KT 030V090 9999 FEW030 20/09 Q1004 BECMG 18010KT RMK 1CU030 A2965
RJTT 240400Z 06005KT 030V090 9999 FEW030 20/09 Q1004 BECMG 14005KT RMK 1CU030 A2965
RJTT 240330Z 01008KT 9999 FEW030 20/07 Q1004 BECMG 14005KT RMK 1CU030 A2967
RJTT 240300Z 01010KT 9999 FEW030 19/07 Q1005 BECMG 14005KT RMK 1CU030 A2968
RJTT 240230Z 04009KT 9999 FEW030 SCT060 19/08 Q1005 BECMG 14005KT RMK 1CU030 3SC060 A2969
RJTT 240200Z 02011KT 9999 FEW030 SCT060 19/07 Q1005 BECMG 14005KT RMK 1CU030 3SC060 A2970
RJTT 240130Z 36011KT 9999 FEW030 BKN070 19/08 Q1006 NOSIG RMK 1CU030 5AC070 A2971
RJTT 240100Z 35010KT 9999 FEW030 SCT070 19/08 Q1006 NOSIG RMK 1CU030 3AC070 A2972
RJTT 240030Z 35011KT 9999 FEW030 BKN070 18/09 Q1006 NOSIG RMK 1CU030 5AC070 A2973
RJTT 240000Z 35013KT 9999 FEW020 BKN070 19/08 Q1006 NOSIG RMK 1CU020 6AC070 A2973
RJTT 232330Z 34015KT 9999 FEW020 SCT070 18/08 Q1006 NOSIG RMK 1CU020 4AC070 A2972
RJTT 232300Z 34016KT 9999 FEW020 SCT070 18/07 Q1006 NOSIG RMK 1CU020 4AC070 A2972
RJTT 232230Z 33015KT 9999 FEW020 SCT070 16/07 Q1006 NOSIG RMK 1CU020 4AC070 A2971
RJTT 232200Z 33016KT 9999 FEW020 BKN070 17/07 Q1005 NOSIG RMK 1CU020 5AC070 A2970
RJTT 232130Z 34015KT 9999 FEW020 BKN070 17/08 Q1005 NOSIG RMK 1CU020 6AC070 A2969
RJTT 232100Z 35016KT 9999 FEW020 BKN070 17/08 Q1005 NOSIG RMK 1CU020 7AC070 A2968
RJTT 232030Z 35013KT 9999 FEW020 BKN070 18/09 Q1005 NOSIG RMK 1CU020 6AC070 A2968
RJTT 232000Z 35013KT 9999 FEW020 BKN070 BKN/// 18/09 Q1004 NOSIG RMK 1CU020 5AC070 A2967
RJTT 231930Z 35013KT 9999 FEW020 SCT060 BKN/// 18/09 Q1004 NOSIG RMK 1CU020 3SC060 A2966
RJTT 231900Z 35014KT 9999 FEW020 BKN060 BKN/// 18/09 Q1004 NOSIG RMK 1CU020 6SC060 A2965
RJTT 231830Z 36013KT 9999 FEW020 BKN060 BKN/// 18/09 Q1003 NOSIG RMK 1CU020 5SC060 A2964
RJTT 231800Z 35015KT 9999 FEW020 SCT060 18/10 Q1003 NOSIG RMK 1CU020 3SC060 A2963
RJTT 231730Z 36017KT 9999 FEW020 SCT060 BKN/// 18/10 Q1002 NOSIG RMK 1CU020 3SC060 A2961
RJTT 231700Z 35013KT 9999 FEW020 SCT060 18/11 Q1002 NOSIG RMK 1CU020 3SC060 A2961
RJTT 231630Z 35012KT 9999 FEW020 18/10 Q1002 NOSIG RMK 1CU020 A2960
RJTT 231600Z 35012KT 9999 FEW020 18/11 Q1002 NOSIG RMK 1CU020 A2959
RJTT 231530Z 36011KT 9999 FEW015 SCT060 18/10 Q1002 NOSIG RMK 1CU015 4SC060 A2959
RJTT 231500Z 36010KT 320V020 9999 FEW015 SCT060 19/11 Q1001 NOSIG RMK 1CU015 3SC060 A2958
RJTT 231430Z 36011KT 9999 FEW015 SCT060 18/13 Q1001 NOSIG RMK 1CU015 3SC060 A2958
RJTT 231400Z 35007KT 320V020 9999 FEW010 SCT015 BKN060 18/15 Q1001 NOSIG RMK 1ST010 4CU015 6SC060 A2958
RJTT 231330Z 01007KT 9999 FEW008 BKN014 BKN050 19/17 Q1001 NOSIG RMK 2ST008 6CU014 7SC050 A2957
RJTT 231300Z 01006KT 9999 FEW008 BKN012 BKN045 19/17 Q1001 NOSIG RMK 1ST008 5CU012 7SC045 A2957
RJTT 231230Z 36007KT 9999 -SHRA FEW010 BKN017 BKN050 18/16 Q1001 NOSIG RMK 1ST010 6CU017 7SC050 A2956
RJTT 231200Z 03004KT 340V070 9999 -SHRA FEW008 SCT012 BKN015 18/17 Q1001 BECMG 35015KT RMK 1ST008 3CU012 6CU015 A2956
RJTT 231130Z VRB01KT 9999 FEW010 BKN015 BKN040 19/17 Q1000 BECMG 35012KT RMK 1ST010 5CU015 7SC040 A2956
RJTT 231100Z 13003KT 9999 -SHRA FEW010 SCT015 BKN040 19/18 Q1001 BECMG 35010KT RMK 1ST010 3CU015 7SC040 A2956
RJTT 231030Z VRB01KT 9999 FEW010 BKN040 19/17 Q1000 BECMG 35012KT RMK 1ST010 7SC040 A2955
RJTT 231000Z 35002KT 9999 FEW010 BKN035 19/18 Q1000 BECMG 35012KT RMK 1ST010 7SC035 A2955
RJTT 230930Z 01003KT 9999 FEW006 BKN030 18/18 Q1000 NOSIG RMK 1ST006 7CU030 A2955
RJTT 230921Z VRB02KT 9999 FEW004 BKN030 18/18 Q1000 RMK 1ST004 7CU030 A2955
RJTT 230900Z 02003KT 9999 VCSH FEW004 SCT007 BKN009 18/18 Q1000 BECMG FEW005 BKN015 RMK 1ST004 3ST007 7ST009 A2953
RJTT 230834Z 08006KT 030V120 9999 FEW003 BKN009 BKN090 18/18 Q0999 RMK 1ST003 6ST009 7AC090 A2951
RJTT 230800Z 15002KT 9999 FEW005 BKN120 18/17 Q0999 BECMG 34005KT RMK 1ST005 7AC120 A2952
RJTT 230730Z 26004KT 240V300 8000 -SHRA FEW005 SCT007 BKN020 18/18 Q1000 NOSIG RMK 1ST005 3ST007 5CU020 A2953
RJTT 230700Z 31003KT 290V350 6000 -SHRA FEW007 BKN020 BKN060 18/18 Q0999 NOSIG RMK 1ST007 6CU020 7AC060 A2952
RJTT 230630Z 01006KT 8000 -SHRA FEW007 BKN020 18/18 Q0999 NOSIG RMK 2ST007 7CU020 A2951
RJTT 230600Z 36005KT 9999 -SHRA FEW007 BKN020 18/17 Q0999 NOSIG RMK 1ST007 7CU020 A2951
RJTT 230530Z 34008KT 9999 -SHRA FEW005 SCT007 BKN018 18/17 Q0999 NOSIG RMK 1ST005 3ST007 7CU018 A2951
RJTT 230500Z 34009KT 8000 -SHRA FEW003 BKN007 BKN010 18/17 Q0999 BECMG FEW008 BKN012 RMK 1ST003 5ST007 6CU010 A2951
RJTT 230430Z 33009KT 4000 -SHRA BR FEW005 BKN007 BKN009 17/17 Q0999 BECMG 8000 -SHRA FEW008 BKN012
RJTT 230400Z 01008KT 9999 -SHRA FEW005 SCT007 BKN010 18/17 Q0999 NOSIG RMK 1ST005 3ST007 7CU010 A2952
RJTT 230330Z 01009KT 9999 -SHRA FEW006 SCT007 BKN009 18/17 Q1000 NOSIG RMK 1ST006 3ST007 7CU009 A2953
RJTT 230318Z 35008KT 8000 -SHRA FEW006 SCT007 BKN009 18/17 Q1000 RMK 1ST006 3ST007 7CU009 A2954 P/FR
RJTT 230300Z 34009KT 9999 -SHRA FEW005 BKN007 BKN009 18/17 Q1001 TEMPO 4000 SHRA BR FEW003 BKN005 RMK 1ST005 5ST007 7CU009 A2956
RJTT 230249Z 34008KT 9999 -RA FEW005 SCT006 BKN007 18/17 Q1001 RMK 1ST005 3ST006 5ST007 A2957
RJTT 230230Z 34006KT 9999 -RA FEW004 BKN006 BKN007 18/17 Q1001 TEMPO 4000 SHRA BR FEW003 BKN005 RMK 1ST004 5ST006 7ST007 A2958
RJTT 230215Z 32007KT 7000 FEW004 BKN006 BKN007 18/17 Q1002 RMK 1ST004 5ST006 7ST007 A2959
RJTT 230200Z 30007KT 6000 -RA FEW003 SCT004 BKN005 18/17 Q1002 TEMPO 4000 SHRA BR RMK 1ST003 3ST004 5ST005 A2960
RJTT 230130Z 34003KT 260V050 4000 -RA BR FEW003 SCT004 BKN005 18/18 Q1002 NOSIG RMK 1ST003 3ST004 5ST005 A2961
RJTT 230100Z 03003KT 320V060 4000 R34L/P2000N R22/2000N R34R/P2000N R05/P2000N -RA BR SCT004 BKN005 18/17 Q1002 NOSIG RMK 4ST004 7ST005 A2961
RJTT 230037Z 32004KT 270V010 5000 -RA BR FEW003 SCT004 BKN005 18/17 Q1002 RMK 1ST003 4ST004 7ST005 A2961
RJTT 230030Z 34004KT 270V030 6000 -RA FEW003 SCT004 BKN005 18/17 Q1003 NOSIG RMK 1ST003 4ST004 7ST005 A2962
RJTT 230011Z 01004KT 5000 -RA BR FEW003 SCT004 BKN005 18/17 Q1003 RMK 1ST003 4ST004 7ST005 A2963
RJTT 230000Z 01004KT 350V050 7000 -RA FEW003 SCT004 BKN006 18/17 Q1003 NOSIG RMK 1ST003 4ST004 7ST006 A2964
RJTT 222330Z 36004KT 7000 VCSH FEW003 SCT005 BKN006 17/17 Q1004 NOSIG RMK 1ST003 3ST005 7ST006 A2966
RJTT 222300Z VRB02KT 6000 -RA FEW004 BKN006 BKN007 17/16 Q1004 NOSIG RMK 1ST004 6ST006 7ST007 A2967
RJTT 222238Z 03004KT 360V070 8000 -RA FEW004 BKN006 BKN007 17/16 Q1005 RMK 1ST004 6ST006 7ST007 A2968
RJTT 222230Z 01004KT 330V040 9000 -RA FEW005 BKN007 17/16 Q1005 NOSIG
RJTT 222216Z VRB01KT 9999 -RA FEW005 BKN007 17/16 Q1005 RMK 1ST005 7ST007 A2968
RJTT 222200Z 34003KT 9999 -RA FEW006 BKN008 17/16 Q1005 NOSIG RMK 1ST006 7ST008 A2969
RJTT 222130Z 01004KT 9999 VCSH FEW006 BKN008 17/16 Q1006 NOSIG RMK 1ST006 7ST008 A2971
RJTT 222100Z 36006KT 9999 -SHRA FEW006 BKN008 17/16 Q1005 NOSIG RMK 1ST006 7ST008 A2970
RJTT 222030Z 01010KT 9999 -SHRA FEW007 BKN009 17/15 Q1006 NOSIG RMK 1ST007 7ST009 A2971
RJTT 222000Z 01007KT 340V040 9999 VCSH FEW010 BKN012 18/15 Q1006 TEMPO FEW005 BKN008 RMK 1CU010 7CU012 A2973
RJTT 221930Z 34009KT 9999 VCSH FEW012 BKN014 17/15 Q1007 NOSIG RMK 1CU012 7CU014 A2975
RJTT 221913Z 34009KT 9999 -SHRA FEW012 BKN014 18/15 Q1007 RMK 1CU012 7CU014 A2976
RJTT 221900Z 34007KT 9999 VCSH FEW013 BKN016 18/15 Q1008 TEMPO FEW008 BKN013 RMK 1CU013 7CU016 A2977
RJTT 221830Z 33007KT 9999 VCSH FEW015 BKN017 18/14 Q1008 TEMPO FEW008 BKN013 RMK 1CU015 7CU017 A2978
RJTT 221800Z 35010KT 9999 FEW015 BKN018 BKN060 18/14 Q1008 NOSIG RMK 1CU015 5CU018 6SC060 A2978
RJTT 221730Z 36010KT 9999 FEW015 SCT018 BKN060 18/14 Q1009 NOSIG RMK 1CU015 4CU018 6SC060 A2980
RJTT 221700Z 36011KT 9999 VCSH FEW015 SCT020 BKN045 18/14 Q1009 NOSIG RMK 1CU015 4CU020 6SC045 A2982
RJTT 221630Z 36011KT 9999 FEW015 BKN020 BKN045 18/14 Q1010 NOSIG RMK 1CU015 5CU020 7SC045 A2984
RJTT 221600Z 01009KT 9999 VCSH FEW015 BKN025 BKN050 19/14 Q1010 NOSIG RMK 1CU015 6CU025 7SC050 A2985
RJTT 221530Z 33008KT 9999 VCSH FEW015 BKN025 BKN035 19/14 Q1011 NOSIG RMK 1CU015 6CU025 7SC035 A2987
RJTT 221500Z 34007KT 9999 -SHRA FEW020 SCT030 BKN040 19/14 Q1011 NOSIG RMK 1CU020 4CU030 7SC040 A2987
RJTT 221430Z 34009KT 9999 VCSH FEW020 SCT040 BKN160 19/14 Q1012 NOSIG RMK 1CU020 4SC040 7AC160 A2988
RJTT 221400Z 35008KT 9999 -SHRA FEW015 SCT030 BKN050 19/14 Q1012 NOSIG RMK 1CU015 3CU030 5SC050 A2989 P/FR
RJTT 221330Z 33008KT 9999 VCSH FEW030 SCT050 BKN140 19/14 Q1013 NOSIG RMK 1CU030 4SC050 7AC140 A2992
RJTT 221300Z 34008KT 9999 FEW040 BKN140 19/14 Q1013 NOSIG RMK 1SC040 7AC140 A2993
RJTT 221230Z 35008KT 9999 FEW040 SCT140 BKN200 19/14 Q1014 NOSIG RMK 1SC040 3AC140 5AC200 A2994
RJTT 221200Z 33006KT 9999 FEW040 SCT060 BKN180 18/13 Q1014 NOSIG RMK 1SC040 4SC060 7AC180 A2996
RJTT 221130Z 33007KT 9999 FEW030 SCT130 BKN190 19/14 Q1014 NOSIG RMK 1CU030 3AC130 7AC190 A2996
RJTT 221100Z 35007KT 9999 FEW030 SCT130 BKN180 19/14 Q1015 NOSIG RMK 1CU030 4AC130 7AC180 A2997
RJTT 221030Z 36007KT 9999 FEW030 BKN130 BKN180 19/14 Q1015 NOSIG RMK 1CU030 6AC130 7AC180 A2998
RJTT 221000Z 02005KT 9999 FEW030 BKN180 BKN/// 19/14 Q1015 NOSIG RMK 1CU030 6AC180 A2998
RJTT 220930Z 01007KT 9999 FEW030 BKN180 BKN/// 20/14 Q1015 NOSIG RMK 1CU030 6AC180 A2999
RJTT 220900Z 01007KT 9999 FEW030 BKN180 20/14 Q1015 NOSIG RMK 1CU030 7AC180 A2999